sensor_id;sensor_type;location;lat;lon;timestamp;P1;durP1;ratioP1;P2;durP2;ratioP2
71046;SDS011;58703;48.978;8.982;2022-11-14T00:02:03;18.48;;;11.77;;
71046;SDS011;58703;48.978;8.982;2022-11-14T00:04:30;18.10;;;12.30;;
71046;SDS011;58703;48.978;8.982;2022-11-14T00:06:56;20.40;;;13.10;;
71046;SDS011;58703;48.978;8.982;2022-11-14T00:09:27;21.70;;;12.18;;
71046;SDS011;58703;48.978;8.982;2022-11-14T00:11:54;21.98;;;13.40;;
71046;SDS011;58703;48.978;8.982;2022-11-14T00:14:23;18.73;;;12.38;;
71046;SDS011;58703;48.978;8.982;2022-11-14T00:16:48;18.40;;;12.20;;
71046;SDS011;58703;48.978;8.982;2022-11-14T00:19:14;19.90;;;12.90;;
71046;SDS011;58703;48.978;8.982;2022-11-14T00:21:39;21.03;;;13.50;;
71046;SDS011;58703;48.978;8.982;2022-11-14T00:24:04;24.37;;;14.57;;
71046;SDS011;58703;48.978;8.982;2022-11-14T00:26:31;21.27;;;15.13;;
71046;SDS011;58703;48.978;8.982;2022-11-14T00:28:56;19.88;;;12.45;;
71046;SDS011;58703;48.978;8.982;2022-11-14T00:31:22;19.37;;;12.20;;
71046;SDS011;58703;48.978;8.982;2022-11-14T00:33:48;17.05;;;10.60;;
71046;SDS011;58703;48.978;8.982;2022-11-14T00:36:14;16.47;;;11.53;;
71046;SDS011;58703;48.978;8.982;2022-11-14T00:38:39;21.80;;;12.70;;
71046;SDS011;58703;48.978;8.982;2022-11-14T00:41:05;17.03;;;11.23;;
71046;SDS011;58703;48.978;8.982;2022-11-14T00:43:31;21.60;;;12.75;;
71046;SDS011;58703;48.978;8.982;2022-11-14T00:45:56;20.30;;;12.27;;
71046;SDS011;58703;48.978;8.982;2022-11-14T00:48:22;20.33;;;13.32;;
71046;SDS011;58703;48.978;8.982;2022-11-14T00:50:48;20.07;;;12.77;;
71046;SDS011;58703;48.978;8.982;2022-11-14T00:53:14;21.75;;;13.18;;
71046;SDS011;58703;48.978;8.982;2022-11-14T00:55:41;21.52;;;12.82;;
71046;SDS011;58703;48.978;8.982;2022-11-14T00:58:07;17.23;;;11.40;;
71046;SDS011;58703;48.978;8.982;2022-11-14T01:00:34;18.52;;;11.20;;
71046;SDS011;58703;48.978;8.982;2022-11-14T01:03:01;19.63;;;11.18;;
71046;SDS011;58703;48.978;8.982;2022-11-14T01:05:28;20.88;;;11.70;;
71046;SDS011;58703;48.978;8.982;2022-11-14T01:07:55;19.17;;;12.13;;
71046;SDS011;58703;48.978;8.982;2022-11-14T01:10:22;26.27;;;13.90;;
71046;SDS011;58703;48.978;8.982;2022-11-14T01:12:49;24.95;;;13.85;;
71046;SDS011;58703;48.978;8.982;2022-11-14T01:15:15;24.70;;;15.75;;
71046;SDS011;58703;48.978;8.982;2022-11-14T01:17:41;25.55;;;13.55;;
71046;SDS011;58703;48.978;8.982;2022-11-14T01:20:07;26.87;;;14.80;;
71046;SDS011;58703;48.978;8.982;2022-11-14T01:22:33;21.70;;;13.60;;
71046;SDS011;58703;48.978;8.982;2022-11-14T01:25:00;20.05;;;12.80;;
71046;SDS011;58703;48.978;8.982;2022-11-14T01:27:29;22.63;;;12.80;;
71046;SDS011;58703;48.978;8.982;2022-11-14T01:29:57;21.58;;;12.35;;
71046;SDS011;58703;48.978;8.982;2022-11-14T01:32:23;19.65;;;13.05;;
71046;SDS011;58703;48.978;8.982;2022-11-14T01:34:51;18.05;;;10.68;;
71046;SDS011;58703;48.978;8.982;2022-11-14T01:37:18;18.88;;;12.38;;
71046;SDS011;58703;48.978;8.982;2022-11-14T01:39:44;19.83;;;12.13;;
71046;SDS011;58703;48.978;8.982;2022-11-14T01:42:11;18.60;;;10.88;;
71046;SDS011;58703;48.978;8.982;2022-11-14T01:44:47;23.17;;;12.60;;
71046;SDS011;58703;48.978;8.982;2022-11-14T01:47:16;19.90;;;11.85;;
71046;SDS011;58703;48.978;8.982;2022-11-14T01:49:46;21.50;;;13.30;;
71046;SDS011;58703;48.978;8.982;2022-11-14T01:52:34;16.40;;;10.20;;
71046;SDS011;58703;48.978;8.982;2022-11-14T01:55:06;19.58;;;11.20;;
71046;SDS011;58703;48.978;8.982;2022-11-14T01:57:36;16.98;;;10.75;;
71046;SDS011;58703;48.978;8.982;2022-11-14T02:00:05;15.38;;;9.57;;
71046;SDS011;58703;48.978;8.982;2022-11-14T02:02:33;15.95;;;10.13;;
71046;SDS011;58703;48.978;8.982;2022-11-14T02:05:06;16.73;;;10.40;;
71046;SDS011;58703;48.978;8.982;2022-11-14T02:07:36;19.05;;;11.68;;
71046;SDS011;58703;48.978;8.982;2022-11-14T02:10:05;17.42;;;11.13;;
71046;SDS011;58703;48.978;8.982;2022-11-14T02:12:33;21.42;;;11.00;;
71046;SDS011;58703;48.978;8.982;2022-11-14T02:15:01;18.37;;;12.00;;
71046;SDS011;58703;48.978;8.982;2022-11-14T02:17:28;16.08;;;10.98;;
71046;SDS011;58703;48.978;8.982;2022-11-14T02:22:30;17.55;;;10.63;;
71046;SDS011;58703;48.978;8.982;2022-11-14T02:24:55;18.50;;;10.87;;
71046;SDS011;58703;48.978;8.982;2022-11-14T02:27:21;17.35;;;11.70;;
71046;SDS011;58703;48.978;8.982;2022-11-14T02:29:48;18.60;;;11.33;;
71046;SDS011;58703;48.978;8.982;2022-11-14T02:32:15;16.48;;;10.73;;
71046;SDS011;58703;48.978;8.982;2022-11-14T02:34:41;18.98;;;10.27;;
71046;SDS011;58703;48.978;8.982;2022-11-14T02:37:08;19.60;;;12.00;;
71046;SDS011;58703;48.978;8.982;2022-11-14T02:39:34;22.67;;;12.55;;
71046;SDS011;58703;48.978;8.982;2022-11-14T02:42:00;21.33;;;12.23;;
71046;SDS011;58703;48.978;8.982;2022-11-14T02:44:27;20.93;;;12.37;;
71046;SDS011;58703;48.978;8.982;2022-11-14T02:46:52;20.15;;;12.13;;
71046;SDS011;58703;48.978;8.982;2022-11-14T02:49:18;20.67;;;13.10;;
71046;SDS011;58703;48.978;8.982;2022-11-14T02:51:44;41.55;;;19.23;;
71046;SDS011;58703;48.978;8.982;2022-11-14T02:54:11;31.60;;;16.27;;
71046;SDS011;58703;48.978;8.982;2022-11-14T02:56:36;26.42;;;14.23;;
71046;SDS011;58703;48.978;8.982;2022-11-14T02:59:03;23.55;;;13.63;;
71046;SDS011;58703;48.978;8.982;2022-11-14T03:01:30;22.70;;;12.33;;
71046;SDS011;58703;48.978;8.982;2022-11-14T03:03:56;20.50;;;12.05;;
71046;SDS011;58703;48.978;8.982;2022-11-14T03:06:22;22.48;;;13.55;;
71046;SDS011;58703;48.978;8.982;2022-11-14T03:08:47;20.00;;;12.20;;
71046;SDS011;58703;48.978;8.982;2022-11-14T03:11:13;19.20;;;11.53;;
71046;SDS011;58703;48.978;8.982;2022-11-14T03:13:39;18.05;;;11.13;;
71046;SDS011;58703;48.978;8.982;2022-11-14T03:16:10;17.67;;;11.70;;
71046;SDS011;58703;48.978;8.982;2022-11-14T03:18:36;31.73;;;15.95;;
71046;SDS011;58703;48.978;8.982;2022-11-14T03:21:12;28.20;;;13.45;;
71046;SDS011;58703;48.978;8.982;2022-11-14T03:23:43;15.63;;;9.63;;
71046;SDS011;58703;48.978;8.982;2022-11-14T03:26:10;17.40;;;10.75;;
71046;SDS011;58703;48.978;8.982;2022-11-14T03:28:36;18.33;;;11.38;;
71046;SDS011;58703;48.978;8.982;2022-11-14T03:31:03;17.20;;;11.30;;
71046;SDS011;58703;48.978;8.982;2022-11-14T03:33:31;17.27;;;10.50;;
71046;SDS011;58703;48.978;8.982;2022-11-14T03:35:57;15.93;;;10.98;;
71046;SDS011;58703;48.978;8.982;2022-11-14T03:38:22;18.17;;;11.77;;
71046;SDS011;58703;48.978;8.982;2022-11-14T03:40:48;17.20;;;10.47;;
71046;SDS011;58703;48.978;8.982;2022-11-14T03:43:15;17.25;;;10.20;;
71046;SDS011;58703;48.978;8.982;2022-11-14T03:45:41;13.88;;;9.02;;
71046;SDS011;58703;48.978;8.982;2022-11-14T03:48:08;16.07;;;10.57;;
71046;SDS011;58703;48.978;8.982;2022-11-14T03:50:34;16.38;;;11.13;;
71046;SDS011;58703;48.978;8.982;2022-11-14T03:52:59;16.15;;;9.95;;
71046;SDS011;58703;48.978;8.982;2022-11-14T03:55:25;18.23;;;11.20;;
71046;SDS011;58703;48.978;8.982;2022-11-14T03:57:51;17.70;;;11.68;;
71046;SDS011;58703;48.978;8.982;2022-11-14T04:00:16;15.30;;;10.23;;
71046;SDS011;58703;48.978;8.982;2022-11-14T04:02:42;17.10;;;10.45;;
71046;SDS011;58703;48.978;8.982;2022-11-14T04:05:09;13.20;;;9.10;;
71046;SDS011;58703;48.978;8.982;2022-11-14T04:07:35;14.45;;;9.95;;
71046;SDS011;58703;48.978;8.982;2022-11-14T04:10:00;17.97;;;10.93;;
71046;SDS011;58703;48.978;8.982;2022-11-14T04:12:26;15.25;;;10.10;;
71046;SDS011;58703;48.978;8.982;2022-11-14T04:14:51;17.17;;;10.37;;
71046;SDS011;58703;48.978;8.982;2022-11-14T04:17:17;17.40;;;10.47;;
71046;SDS011;58703;48.978;8.982;2022-11-14T04:19:44;17.98;;;11.30;;
71046;SDS011;58703;48.978;8.982;2022-11-14T04:22:10;17.80;;;10.93;;
71046;SDS011;58703;48.978;8.982;2022-11-14T04:24:35;18.47;;;10.67;;
71046;SDS011;58703;48.978;8.982;2022-11-14T04:27:01;17.00;;;10.70;;
71046;SDS011;58703;48.978;8.982;2022-11-14T04:29:26;15.73;;;10.02;;
71046;SDS011;58703;48.978;8.982;2022-11-14T04:31:52;17.50;;;10.27;;
71046;SDS011;58703;48.978;8.982;2022-11-14T04:34:18;17.63;;;11.57;;
71046;SDS011;58703;48.978;8.982;2022-11-14T04:36:45;19.80;;;11.93;;
71046;SDS011;58703;48.978;8.982;2022-11-14T04:39:11;23.52;;;12.57;;
71046;SDS011;58703;48.978;8.982;2022-11-14T04:41:38;20.00;;;12.50;;
71046;SDS011;58703;48.978;8.982;2022-11-14T04:44:05;19.95;;;11.15;;
71046;SDS011;58703;48.978;8.982;2022-11-14T04:46:31;16.23;;;10.93;;
71046;SDS011;58703;48.978;8.982;2022-11-14T04:48:58;20.37;;;12.23;;
71046;SDS011;58703;48.978;8.982;2022-11-14T04:51:24;17.85;;;11.27;;
71046;SDS011;58703;48.978;8.982;2022-11-14T04:53:53;18.15;;;11.23;;
71046;SDS011;58703;48.978;8.982;2022-11-14T04:56:20;18.67;;;10.37;;
71046;SDS011;58703;48.978;8.982;2022-11-14T04:58:48;16.67;;;9.85;;
71046;SDS011;58703;48.978;8.982;2022-11-14T05:01:15;16.70;;;10.77;;
71046;SDS011;58703;48.978;8.982;2022-11-14T05:03:42;11.75;;;7.45;;
71046;SDS011;58703;48.978;8.982;2022-11-14T05:06:09;17.75;;;10.57;;
71046;SDS011;58703;48.978;8.982;2022-11-14T05:08:36;19.43;;;11.17;;
71046;SDS011;58703;48.978;8.982;2022-11-14T05:11:03;20.98;;;11.48;;
71046;SDS011;58703;48.978;8.982;2022-11-14T05:13:29;19.60;;;11.60;;
71046;SDS011;58703;48.978;8.982;2022-11-14T05:15:59;15.70;;;10.25;;
71046;SDS011;58703;48.978;8.982;2022-11-14T05:18:26;19.53;;;10.97;;
71046;SDS011;58703;48.978;8.982;2022-11-14T05:20:56;20.10;;;11.50;;
71046;SDS011;58703;48.978;8.982;2022-11-14T05:23:24;21.15;;;10.65;;
71046;SDS011;58703;48.978;8.982;2022-11-14T05:26:06;19.80;;;11.23;;
71046;SDS011;58703;48.978;8.982;2022-11-14T05:28:34;17.10;;;10.45;;
71046;SDS011;58703;48.978;8.982;2022-11-14T05:31:01;15.20;;;9.50;;
71046;SDS011;58703;48.978;8.982;2022-11-14T05:33:30;18.77;;;10.63;;
71046;SDS011;58703;48.978;8.982;2022-11-14T05:36:01;18.70;;;10.10;;
71046;SDS011;58703;48.978;8.982;2022-11-14T05:38:28;19.40;;;10.53;;
71046;SDS011;58703;48.978;8.982;2022-11-14T05:40:55;20.13;;;11.10;;
71046;SDS011;58703;48.978;8.982;2022-11-14T05:43:22;13.20;;;8.23;;
71046;SDS011;58703;48.978;8.982;2022-11-14T05:45:48;15.88;;;8.55;;
71046;SDS011;58703;48.978;8.982;2022-11-14T05:48:14;16.80;;;9.63;;
71046;SDS011;58703;48.978;8.982;2022-11-14T05:50:39;16.70;;;9.93;;
71046;SDS011;58703;48.978;8.982;2022-11-14T05:53:05;18.33;;;10.20;;
71046;SDS011;58703;48.978;8.982;2022-11-14T05:55:32;13.07;;;8.17;;
71046;SDS011;58703;48.978;8.982;2022-11-14T05:57:57;16.58;;;9.98;;
71046;SDS011;58703;48.978;8.982;2022-11-14T06:00:25;19.58;;;10.85;;
71046;SDS011;58703;48.978;8.982;2022-11-14T06:02:55;18.80;;;11.35;;
71046;SDS011;58703;48.978;8.982;2022-11-14T06:05:21;16.05;;;9.93;;
71046;SDS011;58703;48.978;8.982;2022-11-14T06:07:47;16.52;;;11.18;;
71046;SDS011;58703;48.978;8.982;2022-11-14T06:10:20;14.70;;;9.32;;
71046;SDS011;58703;48.978;8.982;2022-11-14T06:12:46;19.05;;;11.60;;
71046;SDS011;58703;48.978;8.982;2022-11-14T06:15:13;17.33;;;9.93;;
71046;SDS011;58703;48.978;8.982;2022-11-14T06:17:40;18.40;;;9.90;;
71046;SDS011;58703;48.978;8.982;2022-11-14T06:20:05;14.85;;;9.65;;
71046;SDS011;58703;48.978;8.982;2022-11-14T06:22:34;15.65;;;9.73;;
71046;SDS011;58703;48.978;8.982;2022-11-14T06:25:01;16.13;;;9.77;;
71046;SDS011;58703;48.978;8.982;2022-11-14T06:27:28;16.27;;;9.98;;
71046;SDS011;58703;48.978;8.982;2022-11-14T06:29:54;16.43;;;9.87;;
71046;SDS011;58703;48.978;8.982;2022-11-14T06:32:20;17.73;;;9.25;;
71046;SDS011;58703;48.978;8.982;2022-11-14T06:34:46;16.43;;;10.47;;
71046;SDS011;58703;48.978;8.982;2022-11-14T06:37:11;16.67;;;10.38;;
71046;SDS011;58703;48.978;8.982;2022-11-14T06:39:37;20.03;;;11.00;;
71046;SDS011;58703;48.978;8.982;2022-11-14T06:42:04;17.87;;;11.07;;
71046;SDS011;58703;48.978;8.982;2022-11-14T06:44:29;17.90;;;10.27;;
71046;SDS011;58703;48.978;8.982;2022-11-14T06:46:55;18.93;;;11.43;;
71046;SDS011;58703;48.978;8.982;2022-11-14T06:49:20;17.30;;;9.80;;
71046;SDS011;58703;48.978;8.982;2022-11-14T06:51:48;16.70;;;9.90;;
71046;SDS011;58703;48.978;8.982;2022-11-14T06:54:13;17.02;;;11.02;;
71046;SDS011;58703;48.978;8.982;2022-11-14T06:56:39;18.33;;;11.23;;
71046;SDS011;58703;48.978;8.982;2022-11-14T06:59:05;18.10;;;10.07;;
71046;SDS011;58703;48.978;8.982;2022-11-14T07:01:31;17.25;;;11.27;;
71046;SDS011;58703;48.978;8.982;2022-11-14T07:03:56;17.80;;;9.57;;
71046;SDS011;58703;48.978;8.982;2022-11-14T07:06:25;20.37;;;12.53;;
71046;SDS011;58703;48.978;8.982;2022-11-14T07:08:52;19.55;;;12.38;;
71046;SDS011;58703;48.978;8.982;2022-11-14T07:11:20;15.90;;;9.98;;
71046;SDS011;58703;48.978;8.982;2022-11-14T07:14:00;21.30;;;11.77;;
71046;SDS011;58703;48.978;8.982;2022-11-14T07:16:28;20.80;;;11.55;;
71046;SDS011;58703;48.978;8.982;2022-11-14T07:18:55;17.73;;;11.27;;
71046;SDS011;58703;48.978;8.982;2022-11-14T07:21:23;21.40;;;11.30;;
71046;SDS011;58703;48.978;8.982;2022-11-14T07:23:49;15.10;;;9.52;;
71046;SDS011;58703;48.978;8.982;2022-11-14T07:26:15;13.90;;;9.57;;
71046;SDS011;58703;48.978;8.982;2022-11-14T07:28:41;16.77;;;10.02;;
71046;SDS011;58703;48.978;8.982;2022-11-14T07:31:11;19.83;;;12.05;;
71046;SDS011;58703;48.978;8.982;2022-11-14T07:33:38;29.70;;;15.37;;
71046;SDS011;58703;48.978;8.982;2022-11-14T07:36:04;59.17;;;24.42;;
71046;SDS011;58703;48.978;8.982;2022-11-14T07:38:31;35.10;;;17.80;;
71046;SDS011;58703;48.978;8.982;2022-11-14T07:40:58;16.75;;;10.20;;
71046;SDS011;58703;48.978;8.982;2022-11-14T07:43:27;12.68;;;8.85;;
71046;SDS011;58703;48.978;8.982;2022-11-14T07:45:57;15.50;;;9.63;;
71046;SDS011;58703;48.978;8.982;2022-11-14T07:48:27;14.88;;;9.40;;
71046;SDS011;58703;48.978;8.982;2022-11-14T07:50:56;17.58;;;9.65;;
71046;SDS011;58703;48.978;8.982;2022-11-14T07:53:26;10.48;;;7.18;;
71046;SDS011;58703;48.978;8.982;2022-11-14T07:55:52;13.25;;;8.30;;
71046;SDS011;58703;48.978;8.982;2022-11-14T07:58:18;13.63;;;8.50;;
71046;SDS011;58703;48.978;8.982;2022-11-14T08:00:44;12.77;;;7.30;;
71046;SDS011;58703;48.978;8.982;2022-11-14T08:03:10;9.40;;;6.53;;
71046;SDS011;58703;48.978;8.982;2022-11-14T08:05:36;14.50;;;8.82;;
71046;SDS011;58703;48.978;8.982;2022-11-14T08:08:02;12.47;;;8.70;;
71046;SDS011;58703;48.978;8.982;2022-11-14T08:10:28;12.35;;;7.90;;
71046;SDS011;58703;48.978;8.982;2022-11-14T08:13:00;14.97;;;8.83;;
71046;SDS011;58703;48.978;8.982;2022-11-14T08:15:27;14.98;;;9.38;;
71046;SDS011;58703;48.978;8.982;2022-11-14T08:17:57;17.48;;;9.45;;
71046;SDS011;58703;48.978;8.982;2022-11-14T08:20:24;12.80;;;9.93;;
71046;SDS011;58703;48.978;8.982;2022-11-14T08:22:53;15.40;;;8.88;;
71046;SDS011;58703;48.978;8.982;2022-11-14T08:25:25;13.43;;;8.63;;
71046;SDS011;58703;48.978;8.982;2022-11-14T08:27:51;10.13;;;6.57;;
71046;SDS011;58703;48.978;8.982;2022-11-14T08:30:17;12.23;;;7.40;;
71046;SDS011;58703;48.978;8.982;2022-11-14T08:32:44;13.57;;;8.90;;
71046;SDS011;58703;48.978;8.982;2022-11-14T08:35:10;9.70;;;5.90;;
71046;SDS011;58703;48.978;8.982;2022-11-14T08:37:35;10.32;;;7.80;;
71046;SDS011;58703;48.978;8.982;2022-11-14T08:40:01;13.43;;;8.30;;
71046;SDS011;58703;48.978;8.982;2022-11-14T08:42:27;15.27;;;9.88;;
71046;SDS011;58703;48.978;8.982;2022-11-14T08:44:53;11.35;;;7.18;;
71046;SDS011;58703;48.978;8.982;2022-11-14T08:47:19;11.73;;;7.83;;
71046;SDS011;58703;48.978;8.982;2022-11-14T08:49:48;14.18;;;8.90;;
71046;SDS011;58703;48.978;8.982;2022-11-14T08:52:14;15.07;;;9.57;;
71046;SDS011;58703;48.978;8.982;2022-11-14T08:54:40;10.63;;;6.27;;
71046;SDS011;58703;48.978;8.982;2022-11-14T08:57:06;12.10;;;8.20;;
71046;SDS011;58703;48.978;8.982;2022-11-14T08:59:33;13.87;;;8.07;;
71046;SDS011;58703;48.978;8.982;2022-11-14T09:01:58;13.40;;;8.88;;
71046;SDS011;58703;48.978;8.982;2022-11-14T09:04:26;14.15;;;9.35;;
71046;SDS011;58703;48.978;8.982;2022-11-14T09:06:51;16.07;;;9.23;;
71046;SDS011;58703;48.978;8.982;2022-11-14T09:09:18;18.10;;;9.98;;
71046;SDS011;58703;48.978;8.982;2022-11-14T09:11:43;19.88;;;10.60;;
71046;SDS011;58703;48.978;8.982;2022-11-14T09:14:10;9.70;;;6.57;;
71046;SDS011;58703;48.978;8.982;2022-11-14T09:16:37;18.40;;;10.95;;
71046;SDS011;58703;48.978;8.982;2022-11-14T09:19:02;11.43;;;7.18;;
71046;SDS011;58703;48.978;8.982;2022-11-14T09:21:29;12.57;;;8.40;;
71046;SDS011;58703;48.978;8.982;2022-11-14T09:23:56;17.42;;;9.18;;
71046;SDS011;58703;48.978;8.982;2022-11-14T09:26:23;12.52;;;8.30;;
71046;SDS011;58703;48.978;8.982;2022-11-14T09:28:50;15.90;;;8.87;;
71046;SDS011;58703;48.978;8.982;2022-11-14T09:31:16;20.67;;;11.45;;
71046;SDS011;58703;48.978;8.982;2022-11-14T09:33:41;25.05;;;11.30;;
71046;SDS011;58703;48.978;8.982;2022-11-14T09:36:09;20.07;;;11.17;;
71046;SDS011;58703;48.978;8.982;2022-11-14T09:38:41;19.90;;;10.07;;
71046;SDS011;58703;48.978;8.982;2022-11-14T09:41:24;16.67;;;10.18;;
71046;SDS011;58703;48.978;8.982;2022-11-14T09:46:26;20.98;;;9.80;;
71046;SDS011;58703;48.978;8.982;2022-11-14T09:48:59;14.85;;;9.60;;
71046;SDS011;58703;48.978;8.982;2022-11-14T09:51:27;11.35;;;8.43;;
71046;SDS011;58703;48.978;8.982;2022-11-14T09:54:05;14.50;;;8.85;;
71046;SDS011;58703;48.978;8.982;2022-11-14T09:56:40;20.10;;;12.63;;
71046;SDS011;58703;48.978;8.982;2022-11-14T09:59:08;19.17;;;12.02;;
71046;SDS011;58703;48.978;8.982;2022-11-14T10:07:06;11.65;;;9.07;;
71046;SDS011;58703;48.978;8.982;2022-11-14T10:09:49;15.35;;;9.85;;
71046;SDS011;58703;48.978;8.982;2022-11-14T10:12:23;16.63;;;10.02;;
71046;SDS011;58703;48.978;8.982;2022-11-14T10:20:52;36.72;;;18.55;;
71046;SDS011;58703;48.978;8.982;2022-11-14T10:28:47;23.40;;;13.30;;
71046;SDS011;58703;48.978;8.982;2022-11-14T10:37:26;21.92;;;11.32;;
71046;SDS011;58703;48.978;8.982;2022-11-14T10:40:08;33.00;;;19.88;;
71046;SDS011;58703;48.978;8.982;2022-11-14T10:42:40;22.95;;;14.70;;
71046;SDS011;58703;48.978;8.982;2022-11-14T10:47:37;17.63;;;11.93;;
71046;SDS011;58703;48.978;8.982;2022-11-14T10:50:18;13.13;;;7.60;;
71046;SDS011;58703;48.978;8.982;2022-11-14T10:52:50;14.65;;;10.00;;
71046;SDS011;58703;48.978;8.982;2022-11-14T10:55:23;14.40;;;10.20;;
71046;SDS011;58703;48.978;8.982;2022-11-14T10:57:49;11.20;;;6.50;;
71046;SDS011;58703;48.978;8.982;2022-11-14T11:00:18;9.13;;;5.10;;
71046;SDS011;58703;48.978;8.982;2022-11-14T11:02:48;9.07;;;4.43;;
71046;SDS011;58703;48.978;8.982;2022-11-14T11:05:16;6.78;;;4.55;;
71046;SDS011;58703;48.978;8.982;2022-11-14T11:07:45;7.60;;;4.95;;
71046;SDS011;58703;48.978;8.982;2022-11-14T11:10:30;12.80;;;7.20;;
71046;SDS011;58703;48.978;8.982;2022-11-14T11:13:29;10.60;;;7.25;;
71046;SDS011;58703;48.978;8.982;2022-11-14T11:15:57;10.13;;;6.97;;
71046;SDS011;58703;48.978;8.982;2022-11-14T11:21:00;12.20;;;8.32;;
71046;SDS011;58703;48.978;8.982;2022-11-14T11:23:47;11.03;;;6.73;;
71046;SDS011;58703;48.978;8.982;2022-11-14T11:28:42;18.35;;;10.63;;
71046;SDS011;58703;48.978;8.982;2022-11-14T11:31:08;37.10;;;18.45;;
71046;SDS011;58703;48.978;8.982;2022-11-14T11:33:35;14.82;;;9.13;;
71046;SDS011;58703;48.978;8.982;2022-11-14T11:36:04;11.33;;;6.83;;
71046;SDS011;58703;48.978;8.982;2022-11-14T11:38:36;10.80;;;9.68;;
71046;SDS011;58703;48.978;8.982;2022-11-14T11:44:00;10.82;;;7.70;;
71046;SDS011;58703;48.978;8.982;2022-11-14T11:46:44;12.65;;;8.43;;
71046;SDS011;58703;48.978;8.982;2022-11-14T11:49:27;8.90;;;6.37;;
71046;SDS011;58703;48.978;8.982;2022-11-14T11:51:55;15.95;;;9.52;;
71046;SDS011;58703;48.978;8.982;2022-11-14T11:54:28;8.25;;;6.30;;
71046;SDS011;58703;48.978;8.982;2022-11-14T11:57:00;4.25;;;3.15;;
71046;SDS011;58703;48.978;8.982;2022-11-14T11:59:39;6.68;;;3.80;;
71046;SDS011;58703;48.978;8.982;2022-11-14T12:02:25;5.30;;;4.17;;
71046;SDS011;58703;48.978;8.982;2022-11-14T12:04:52;5.43;;;4.30;;
71046;SDS011;58703;48.978;8.982;2022-11-14T12:07:21;5.72;;;3.88;;
71046;SDS011;58703;48.978;8.982;2022-11-14T12:09:54;5.47;;;3.92;;
71046;SDS011;58703;48.978;8.982;2022-11-14T12:15:17;4.80;;;3.00;;
71046;SDS011;58703;48.978;8.982;2022-11-14T12:26:41;8.25;;;4.22;;
71046;SDS011;58703;48.978;8.982;2022-11-14T12:30:02;4.60;;;3.00;;
71046;SDS011;58703;48.978;8.982;2022-11-14T12:32:42;2.00;;;1.33;;
71046;SDS011;58703;48.978;8.982;2022-11-14T12:35:16;4.10;;;2.60;;
71046;SDS011;58703;48.978;8.982;2022-11-14T12:37:48;2.67;;;2.00;;
71046;SDS011;58703;48.978;8.982;2022-11-14T12:42:53;1.50;;;1.10;;
71046;SDS011;58703;48.978;8.982;2022-11-14T12:50:46;2.10;;;1.00;;
71046;SDS011;58703;48.978;8.982;2022-11-14T13:07:00;1.52;;;0.93;;
71046;SDS011;58703;48.978;8.982;2022-11-14T13:12:31;1.63;;;1.02;;
71046;SDS011;58703;48.978;8.982;2022-11-14T13:15:33;0.80;;;0.70;;
71046;SDS011;58703;48.978;8.982;2022-11-14T13:18:31;1.65;;;0.90;;
71046;SDS011;58703;48.978;8.982;2022-11-14T13:24:16;3.57;;;1.03;;
71046;SDS011;58703;48.978;8.982;2022-11-14T13:26:53;1.50;;;1.05;;
71046;SDS011;58703;48.978;8.982;2022-11-14T13:32:03;2.47;;;0.88;;
71046;SDS011;58703;48.978;8.982;2022-11-14T13:34:56;1.20;;;1.10;;
71046;SDS011;58703;48.978;8.982;2022-11-14T13:40:18;2.03;;;1.13;;
71046;SDS011;58703;48.978;8.982;2022-11-14T13:43:04;1.33;;;0.82;;
71046;SDS011;58703;48.978;8.982;2022-11-14T13:46:07;2.42;;;1.30;;
71046;SDS011;58703;48.978;8.982;2022-11-14T13:51:20;5.50;;;2.43;;
71046;SDS011;58703;48.978;8.982;2022-11-14T13:53:50;3.05;;;1.98;;
71046;SDS011;58703;48.978;8.982;2022-11-14T13:56:37;3.58;;;2.10;;
71046;SDS011;58703;48.978;8.982;2022-11-14T14:30:26;3.05;;;1.25;;
71046;SDS011;58703;48.978;8.982;2022-11-14T14:33:06;1.60;;;1.10;;
71046;SDS011;58703;48.978;8.982;2022-11-14T14:35:36;1.60;;;1.40;;
71046;SDS011;58703;48.978;8.982;2022-11-14T14:38:09;3.17;;;1.42;;
71046;SDS011;58703;48.978;8.982;2022-11-14T14:40:38;1.27;;;0.93;;
71046;SDS011;58703;48.978;8.982;2022-11-14T14:43:06;1.30;;;1.20;;
71046;SDS011;58703;48.978;8.982;2022-11-14T14:45:44;2.57;;;1.37;;
71046;SDS011;58703;48.978;8.982;2022-11-14T14:48:14;3.40;;;1.27;;
71046;SDS011;58703;48.978;8.982;2022-11-14T14:50:52;4.78;;;1.92;;
71046;SDS011;58703;48.978;8.982;2022-11-14T14:53:30;1.95;;;1.50;;
71046;SDS011;58703;48.978;8.982;2022-11-14T14:56:02;2.05;;;1.58;;
71046;SDS011;58703;48.978;8.982;2022-11-14T14:58:31;3.93;;;1.07;;
71046;SDS011;58703;48.978;8.982;2022-11-14T15:01:32;1.77;;;1.40;;
71046;SDS011;58703;48.978;8.982;2022-11-14T15:04:01;1.73;;;1.50;;
71046;SDS011;58703;48.978;8.982;2022-11-14T15:06:33;2.70;;;1.30;;
71046;SDS011;58703;48.978;8.982;2022-11-14T15:09:12;2.13;;;1.10;;
71046;SDS011;58703;48.978;8.982;2022-11-14T15:11:44;1.70;;;1.57;;
71046;SDS011;58703;48.978;8.982;2022-11-14T15:14:24;2.75;;;1.25;;
71046;SDS011;58703;48.978;8.982;2022-11-14T15:16:53;2.13;;;1.88;;
71046;SDS011;58703;48.978;8.982;2022-11-14T15:19:21;2.05;;;1.65;;
71046;SDS011;58703;48.978;8.982;2022-11-14T15:22:01;4.35;;;1.88;;
71046;SDS011;58703;48.978;8.982;2022-11-14T15:24:30;4.80;;;2.60;;
71046;SDS011;58703;48.978;8.982;2022-11-14T15:26:57;1.80;;;1.50;;
71046;SDS011;58703;48.978;8.982;2022-11-14T15:29:23;4.22;;;1.45;;
71046;SDS011;58703;48.978;8.982;2022-11-14T15:31:51;5.45;;;1.50;;
71046;SDS011;58703;48.978;8.982;2022-11-14T15:34:33;2.80;;;1.85;;
71046;SDS011;58703;48.978;8.982;2022-11-14T15:37:05;15.73;;;5.87;;
71046;SDS011;58703;48.978;8.982;2022-11-14T15:39:32;4.68;;;2.13;;
71046;SDS011;58703;48.978;8.982;2022-11-14T15:42:16;2.50;;;1.90;;
71046;SDS011;58703;48.978;8.982;2022-11-14T15:44:44;2.57;;;1.50;;
71046;SDS011;58703;48.978;8.982;2022-11-14T15:47:33;1.65;;;1.30;;
71046;SDS011;58703;48.978;8.982;2022-11-14T15:50:18;2.08;;;1.50;;
71046;SDS011;58703;48.978;8.982;2022-11-14T15:52:53;2.40;;;1.50;;
71046;SDS011;58703;48.978;8.982;2022-11-14T15:55:24;4.55;;;2.05;;
71046;SDS011;58703;48.978;8.982;2022-11-14T15:57:51;4.20;;;1.60;;
71046;SDS011;58703;48.978;8.982;2022-11-14T16:00:17;2.35;;;1.50;;
71046;SDS011;58703;48.978;8.982;2022-11-14T16:02:47;2.72;;;1.55;;
71046;SDS011;58703;48.978;8.982;2022-11-14T16:05:18;6.97;;;2.00;;
71046;SDS011;58703;48.978;8.982;2022-11-14T16:07:49;4.15;;;1.98;;
71046;SDS011;58703;48.978;8.982;2022-11-14T16:10:17;4.73;;;1.40;;
71046;SDS011;58703;48.978;8.982;2022-11-14T16:12:45;3.00;;;1.55;;
71046;SDS011;58703;48.978;8.982;2022-11-14T16:15:12;4.13;;;1.92;;
71046;SDS011;58703;48.978;8.982;2022-11-14T16:17:42;3.28;;;1.80;;
71046;SDS011;58703;48.978;8.982;2022-11-14T16:20:42;3.65;;;1.95;;
71046;SDS011;58703;48.978;8.982;2022-11-14T16:23:04;3.30;;;1.70;;
71046;SDS011;58703;48.978;8.982;2022-11-14T16:25:30;3.80;;;1.85;;
71046;SDS011;58703;48.978;8.982;2022-11-14T16:27:56;3.65;;;1.88;;
71046;SDS011;58703;48.978;8.982;2022-11-14T16:30:23;7.40;;;4.83;;
71046;SDS011;58703;48.978;8.982;2022-11-14T16:32:49;10.68;;;7.05;;
71046;SDS011;58703;48.978;8.982;2022-11-14T16:35:17;8.25;;;5.13;;
71046;SDS011;58703;48.978;8.982;2022-11-14T16:37:45;13.10;;;6.47;;
71046;SDS011;58703;48.978;8.982;2022-11-14T16:42:41;5.17;;;4.00;;
71046;SDS011;58703;48.978;8.982;2022-11-14T16:45:08;10.20;;;5.82;;